Pagrindinis puslapis
METAR-TAF:

METAR-TAF

Oro uostai :

Anvik, Aliaska, Jungtinės Amerikos Valstijos

platuma: 62-38-54N, ilguma: 160-11-23W, Aukštis: 94 m

Dabartinis oras

Ataskaita buvo paskelbta 37 minutes, ne 04:56 UTC
Vėjas 5 kt iš Šiaurės Rytų
Temperatūra -17°C
Drėgmė 65%
Slėgis 1014 hPa
Matomumas: 16.1 km
Giedras dangus

METAR: PANV 280456Z AUTO 04005KT 10SM CLR M17/M22 A2993 RMK AO2 SLP293 T11721217 FZRANO TSNO

Laikas: 20:33 (05:33 UTC)


TAF: trūkstamas

Orai ataskaitas ir orų prognozės (METAR, TAF).

turimą stotys yra geltonos ir raudonos taškus žemėlapyje.

Perkelti pele per norėdami pamatyti stoties vardą.

Tada spustelėkite, norėdami matyti oro stebėjimo ir prognozės.

Norėdami pakeisti žemėlapį: spustelėkite ant žalios mygtukų su juodo kryžiaus žemyn,; žalią mygtuką su brūkšneliu, jei norite nutolinti; arba žalių rodyklių gretimoms žemėlapius.


METAR-TAF: